< < Back
Terminal Aerodrome Forecast


Current Version              Previous Versions:   1  2  3  4  5  6  7  8  9  

Terminal Aerodrome Forecast

357
FTUS42 KILM 272100 AAA
TAFILM
TAF AMD
KILM 272101Z 2721/2818 32013G25KT P6SM SCT040 BKN060
     FM272300 33009KT P6SM SKC
     FM281400 34010G18KT P6SM SKC=



Latest METAR

820
SAUS70 KWBC 281500 RRC
MTRILM
METAR KILM 281453Z 35012KT 10SM CLR 04/M04 A3036 RMK AO2 SLP281
T00441044 53012


USA.gov is the U.S. government's official web portal to all federal, state and local government web resources and services.